Latest Weather Observations for Nambour

IDQ60901

Issued at 6:45 pm EST Saturday 29 November 2014 (issued every 10 minutes, with the page automatically refreshed every 10 minutes)

About weather observations | Map of Brisbane area stations | Latest observations for Brisbane area | Other Formats
Station Details ID: 040988 Name: NAMBOUR DAFF - HILLSIDE Lat: -26.64 Lon: 152.94 Height: 53.24 m
Data from the previous 72 hours. | See also: Recent months at Nambour
Date/Time
EST
Tmp

°C
App
Tmp
°C
Dew
Point
°C
Rel
Hum
%
Delta-T

°C
Wind Press
QNH
hPa
Press
MSL
hPa
Rain
since
9 am
mm
Dir
 
Spd
km/h
Gust
km/h
Spd
kts
Gust
kts
29/06:30pm 22.1 21.7 14.2 61 4.6 E 9 15 5 8 1017.0 1016.8 0.0
29/06:00pm 22.6 23.0 14.7 61 4.7 E 6 9 3 5 1017.0 1016.8 0.0
29/05:30pm 23.1 22.2 13.6 55 5.5 E 11 19 6 10 1016.8 1016.6 0.0
29/05:00pm 23.6 22.6 12.3 49 6.4 E 9 19 5 10 1016.7 1016.5 0.0
29/04:30pm 23.9 23.1 12.8 49 6.4 ESE 9 20 5 11 1016.5 1016.3 0.0
29/04:00pm 24.1 22.3 13.3 51 6.3 E 15 22 8 12 1016.4 1016.2 0.0
29/03:30pm 24.5 22.6 11.8 45 7.2 E 13 20 7 11 1016.5 1016.3 0.0
29/03:00pm 25.0 23.1 11.9 44 7.5 E 13 24 7 13 1016.8 1016.6 0.0
29/02:30pm 24.4 22.1 11.7 45 7.2 E 15 26 8 14 1017.2 1017.0 0.0
29/02:00pm 25.1 23.7 13.3 48 6.9 E 13 22 7 12 1017.3 1017.1 0.0
29/01:30pm 24.6 23.6 13.5 50 6.5 E 11 20 6 11 1017.4 1017.2 0.0
29/01:00pm 24.4 22.7 13.6 51 6.3 E 15 26 8 14 1017.5 1017.3 0.0
29/12:30pm 25.4 24.3 15.4 54 6.1 E 15 32 8 17 1017.6 1017.4 0.0
29/12:00pm 25.6 24.6 14.7 51 6.5 E 13 26 7 14 1017.9 1017.7 0.0
29/11:30am 25.4 23.7 13.6 48 6.9 E 15 24 8 13 1018.1 1017.9 0.0
29/11:00am 24.9 23.3 13.8 50 6.5 E 15 24 8 13 1018.3 1018.1 0.0
29/10:30am 25.3 24.5 14.1 50 6.6 E 11 24 6 13 1018.5 1018.3 0.0
29/10:00am 25.6 25.1 15.0 52 6.4 E 11 20 6 11 1018.8 1018.6 0.0
29/09:30am 24.8 24.7 14.9 54 5.9 ESE 9 19 5 10 1019.2 1019.0 0.0
29/09:00am 24.6 23.5 14.4 53 6.0 E 13 24 7 13 1019.1 1018.9 47.6
29/08:30am 24.4 23.9 14.8 55 5.7 E 11 22 6 12 1018.9 1018.7 47.6
29/08:00am 23.6 25.3 18.0 71 3.5 ESE 6 11 3 6 1018.9 1018.7 47.6
29/07:30am 22.4 25.5 19.4 83 1.9 S 2 7 1 4 1018.9 1018.7 47.6
29/07:00am 20.9 24.4 19.6 92 0.8 CALM 0 4 0 2 1018.7 1018.5 47.6
29/06:30am 19.6 22.2 18.4 93 0.7 SW 2 6 1 3 1018.4 1018.2 47.6
29/06:00am 19.0 21.1 18.0 94 0.6 SW 4 9 2 5 1018.1 1017.9 47.6
29/05:30am 18.6 20.2 17.8 95 0.5 SW 6 11 3 6 1018.0 1017.8 47.6
29/05:00am 18.4 20.7 17.6 95 0.5 E 2 7 1 4 1017.7 1017.5 47.6
29/04:30am 17.9 20.0 17.1 95 0.5 S 2 11 1 6 1017.3 1017.1 46.6
29/04:00am 17.4 19.6 16.6 95 0.5 CALM 0 2 0 1 1017.2 1017.0 46.6
29/03:30am 17.8 20.2 17.0 95 0.5 CALM 0 0 0 0 1017.0 1016.8 46.6
29/03:00am 17.9 20.3 17.1 95 0.5 CALM 0 2 0 1 1017.0 1016.8 46.6
29/02:30am 17.8 20.1 16.8 94 0.6 CALM 0 2 0 1 1017.1 1016.9 46.6
29/02:00am 18.0 20.5 17.2 95 0.5 CALM 0 0 0 0 1017.2 1017.0 46.6
29/01:30am 18.1 20.6 17.3 95 0.5 CALM 0 0 0 0 1017.5 1017.3 46.6
29/01:00am 18.1 20.5 17.1 94 0.6 CALM 0 0 0 0 1017.6 1017.4 46.6
29/12:30am 18.5 21.2 17.7 95 0.5 CALM 0 0 0 0 1017.9 1017.7 46.6
29/12:00am 18.7 21.3 17.5 93 0.7 CALM 0 2 0 1 1018.5 1018.3 46.4
 
Date/Time
EST
Tmp

°C
App
Tmp
°C
Dew
Point
°C
Rel
Hum
%
Delta-T

°C
Wind Press
QNH
hPa
Press
MSL
hPa
Rain
since
9 am
mm
Dir
 
Spd
km/h
Gust
km/h
Spd
kts
Gust
kts
28/11:30pm 18.7 21.3 17.5 93 0.7 CALM 0 0 0 0 1018.8 1018.6 46.4
28/11:00pm 18.9 21.2 17.7 93 0.7 WSW 2 4 1 2 1019.1 1018.9 46.4
28/10:30pm 19.6 22.5 18.3 92 0.8 CALM 0 2 0 1 1019.2 1019.0 46.4
28/10:00pm 19.3 22.1 18.0 92 0.8 CALM 0 4 0 2 1019.4 1019.2 46.4
28/09:30pm 19.6 22.1 18.1 91 0.9 SE 2 4 1 2 1019.5 1019.3 46.4
28/09:00pm 20.0 22.3 18.5 91 0.9 S 4 7 2 4 1019.5 1019.3 46.4
28/08:30pm 20.1 23.5 19.3 95 0.5 CALM 0 6 0 3 1019.3 1019.1 46.4
28/08:00pm 20.2 23.5 19.2 94 0.6 CALM 0 0 0 0 1019.0 1018.8 46.4
28/07:30pm 20.4 23.5 19.6 95 0.5 SW 2 4 1 2 1018.8 1018.6 46.4
28/07:00pm 20.3 23.4 19.5 95 0.5 SSW 2 7 1 4 1018.7 1018.5 46.4
28/06:30pm 20.5 23.1 19.3 93 0.8 ESE 4 9 2 5 1018.5 1018.3 44.2
28/06:00pm 20.7 23.1 19.7 94 0.6 SSE 6 19 3 10 1018.3 1018.1 43.4
28/05:30pm 20.5 23.7 19.8 96 0.4 SW 2 6 1 3 1017.8 1017.6 39.0
28/05:00pm 20.5 23.3 19.7 95 0.5 WSW 4 6 2 3 1017.7 1017.5 38.6
28/04:30pm 20.3 22.4 19.3 94 0.6 WNW 7 11 4 6 1017.7 1017.5 37.2
28/04:00pm 19.9 22.4 19.1 95 0.5 N 4 7 2 4 1017.7 1017.5 36.4
28/03:30pm 20.6 22.8 19.3 92 0.8 SSW 6 11 3 6 1017.7 1017.5 21.0
28/03:00pm 24.1 25.8 18.1 69 3.8 ESE 6 17 3 9 1017.3 1017.1 13.8
28/02:30pm 24.1 26.7 19.2 74 3.1 SSW 4 7 2 4 1017.2 1017.0 13.8
28/02:00pm 23.6 25.7 19.3 77 2.7 ESE 7 13 4 7 1017.8 1017.6 13.8
28/01:30pm 22.9 26.2 20.8 88 1.4 S 4 9 2 5 1018.1 1017.9 13.8
28/01:00pm 22.4 25.3 19.8 85 1.7 SE 4 9 2 5 1018.1 1017.9 13.6
28/12:30pm 23.0 23.9 18.5 76 2.8 ESE 11 22 6 12 1018.1 1017.9 12.2
28/12:00pm 24.3 26.8 20.2 78 2.7 ESE 7 13 4 7 1018.5 1018.3 11.4
28/11:30am 22.4 24.9 19.9 86 1.6 E 6 13 3 7 1018.8 1018.6 11.4
28/11:00am 21.5 24.0 19.8 90 1.1 ESE 6 15 3 8 1019.4 1019.2 10.2
28/10:30am 22.7 24.2 18.9 79 2.4 ESE 9 17 5 9 1019.1 1018.9 8.2
28/10:00am 22.2 24.3 20.1 88 1.4 SE 9 19 5 10 1018.9 1018.7 8.2
28/09:30am 21.4 24.1 20.2 93 0.8 ESE 6 17 3 9 1019.0 1018.8 7.8
28/09:00am 23.4 26.3 19.8 80 2.3 S 4 13 2 7 1018.5 1018.3 38.2
28/08:30am 23.4 25.9 19.8 80 2.3 SE 6 9 3 5 1018.4 1018.2 37.6
28/08:00am 22.3 25.3 19.3 83 1.9 SE 2 7 1 4 1018.4 1018.2 37.6
28/07:30am 21.7 24.1 18.9 84 1.8 SW 4 9 2 5 1018.3 1018.1 37.6
28/07:00am 21.5 24.5 19.2 87 1.5 SSE 2 11 1 6 1018.5 1018.3 37.6
28/06:30am 20.7 23.8 19.5 93 0.8 WSW 2 6 1 3 1017.9 1017.7 37.6
28/06:00am 20.3 22.9 19.3 94 0.6 SW 4 7 2 4 1017.5 1017.3 37.6
28/05:30am 20.3 23.3 19.3 94 0.6 SW 2 6 1 3 1017.4 1017.2 37.4
28/05:00am 20.5 23.3 19.7 95 0.5 SSW 4 7 2 4 1017.2 1017.0 36.6
28/04:30am 20.4 23.2 19.6 95 0.5 E 4 11 2 6 1016.9 1016.7 34.8
28/04:00am 20.6 23.5 19.8 95 0.5 ESE 4 7 2 4 1016.6 1016.4 19.0
28/03:30am 20.9 24.1 19.7 93 0.8 SE 2 4 1 2 1016.2 1016.0 4.8
28/03:00am 21.3 24.7 20.1 93 0.8 SSW 2 9 1 5 1015.9 1015.7 2.8
28/02:30am 21.1 23.7 20.1 94 0.6 ESE 6 9 3 5 1015.8 1015.6 2.8
28/02:00am 21.3 25.0 19.9 92 0.9 CALM 0 0 0 0 1016.1 1015.9 1.8
28/01:30am 21.3 25.1 20.1 93 0.8 CALM 0 4 0 2 1016.2 1016.0 1.8
28/01:00am 21.3 24.6 19.9 92 0.9 S 2 7 1 4 1016.4 1016.2 1.8
28/12:30am 21.5 25.4 20.3 93 0.8 CALM 0 4 0 2 1016.5 1016.3 1.6
28/12:00am 21.8 25.7 20.3 91 1.0 CALM 0 2 0 1 1016.7 1016.5 1.0
 
Date/Time
EST
Tmp

°C
App
Tmp
°C
Dew
Point
°C
Rel
Hum
%
Delta-T

°C
Wind Press
QNH
hPa
Press
MSL
hPa
Rain
since
9 am
mm
Dir
 
Spd
km/h
Gust
km/h
Spd
kts
Gust
kts
27/11:30pm 22.0 25.2 20.6 92 0.9 SSW 4 9 2 5 1017.0 1016.8 0.4
27/11:00pm 21.9 25.9 20.5 92 0.9 CALM 0 0 0 0 1017.3 1017.1 0.4
27/10:30pm 22.0 25.7 20.8 93 0.8 S 2 6 1 3 1017.2 1017.0 0.4
27/10:00pm 21.9 25.9 20.5 92 0.9 CALM 0 4 0 2 1017.2 1017.0 0.2
27/09:30pm 21.8 25.3 20.3 91 1.0 S 2 6 1 3 1017.2 1017.0 0.2
27/09:00pm 22.0 25.9 20.3 90 1.1 CALM 0 0 0 0 1017.0 1016.8 0.2
27/08:30pm 21.8 24.8 20.1 90 1.1 S 4 7 2 4 1016.9 1016.7 0.2
27/08:00pm 22.0 23.8 19.5 86 1.6 SW 9 15 5 8 1016.6 1016.4 0.0
27/07:30pm 23.1 25.6 18.2 74 3.1 SE 2 9 1 5 1016.3 1016.1 0.0
27/07:00pm 24.6 26.8 19.2 72 3.5 SE 6 11 3 6 1016.6 1016.4 0.0
27/06:30pm 24.6 25.7 18.8 70 3.7 E 11 17 6 9 1015.9 1015.7 0.0
27/06:00pm 25.2 26.4 18.2 65 4.4 ENE 9 17 5 9 1015.2 1015.0 0.0
27/05:30pm 26.1 26.1 17.2 58 5.6 E 13 19 7 10 1014.3 1014.1 0.0
27/05:00pm 26.9 26.6 16.5 53 6.4 E 13 19 7 10 1013.7 1013.5 0.0
27/04:30pm 27.2 26.5 16.5 52 6.6 ENE 15 22 8 12 1013.1 1012.9 0.0
27/04:00pm 27.9 27.2 16.5 50 7.1 ENE 15 20 8 11 1012.9 1012.7 0.0
27/03:30pm 28.6 28.2 16.2 47 7.7 E 13 19 7 10 1013.1 1012.9 0.0
27/03:00pm 29.1 28.7 16.3 46 8.0 ENE 13 22 7 12 1013.2 1013.0 0.0
27/02:30pm 29.6 28.9 16.4 45 8.2 E 15 26 8 14 1013.4 1013.2 0.0
27/02:00pm 29.1 27.7 15.6 44 8.3 ENE 17 24 9 13 1013.7 1013.5 0.0
27/01:30pm 29.9 29.3 16.7 45 8.3 ENE 15 22 8 12 1013.7 1013.5 0.0
27/01:00pm 29.9 29.1 17.0 45 8.1 E 17 26 9 14 1013.9 1013.7 0.0
27/12:30pm 30.3 30.0 17.4 46 8.2 ENE 15 26 8 14 1014.2 1014.0 0.0
27/12:00pm 30.4 30.6 18.5 49 7.7 E 15 26 8 14 1014.5 1014.3 0.0
27/11:30am 29.9 29.6 17.4 47 7.9 E 15 24 8 13 1014.9 1014.7 0.0
27/11:00am 29.7 30.4 16.1 43 8.5 E 7 13 4 7 1015.4 1015.2 0.0
27/10:30am 29.4 31.0 17.9 50 7.3 E 6 9 3 5 1015.8 1015.6 0.0
27/10:00am 27.9 29.4 17.7 53 6.5 NW 6 7 3 4 1016.3 1016.1 0.0
27/09:30am 28.3 29.4 17.2 51 7.0 NE 7 17 4 9 1016.4 1016.2 0.0
27/09:00am 26.7 28.3 16.0 52 6.6 NE 2 7 1 4 1016.7 1016.5 0.0
27/08:30am 25.9 27.6 18.1 62 4.9 NW 6 11 3 6 1016.9 1016.7 0.0
27/08:00am 25.7 27.8 18.9 66 4.3 NW 6 13 3 7 1017.0 1016.8 0.0
27/07:30am 24.7 26.8 18.9 70 3.7 NNW 6 9 3 5 1017.1 1016.9 0.0
27/07:00am 24.6 26.6 19.2 72 3.5 N 7 13 4 7 1016.9 1016.7 0.0
27/06:30am 23.3 27.1 20.1 82 2.1 CALM 0 6 0 3 1016.5 1016.3 0.0
27/06:00am 21.9 25.7 20.2 90 1.1 CALM 0 0 0 0 1016.2 1016.0 0.0
27/05:30am 21.6 25.3 19.9 90 1.1 CALM 0 0 0 0 1016.2 1016.0 0.0
27/05:00am 21.4 25.1 19.9 91 1.0 CALM 0 0 0 0 1016.0 1015.8 0.0
27/04:30am 21.6 24.2 20.1 91 1.0 WSW 6 7 3 4 1015.8 1015.6 0.0
27/04:00am 21.0 24.4 19.3 90 1.1 CALM 0 0 0 0 1015.2 1015.0 0.0
27/03:30am 21.4 24.9 19.5 89 1.2 CALM 0 4 0 2 1015.5 1015.3 0.0
27/03:00am 21.4 24.1 19.5 89 1.2 S 4 6 2 3 1015.5 1015.3 0.0
27/02:30am 21.2 24.7 19.5 90 1.1 CALM 0 0 0 0 1015.3 1015.1 0.0
27/02:00am 20.7 24.0 19.0 90 1.1 CALM 0 4 0 2 1014.9 1014.7 0.0
27/01:30am 20.8 24.2 19.3 91 1.0 CALM 0 0 0 0 1015.4 1015.2 0.0
27/01:00am 20.7 24.0 19.2 91 0.9 CALM 0 0 0 0 1015.7 1015.5 0.0
27/12:30am 20.6 23.7 18.7 89 1.2 CALM 0 0 0 0 1016.1 1015.9 0.0
27/12:00am 20.8 24.0 18.9 89 1.2 CALM 0 0 0 0 1016.5 1016.3 0.0
 
Date/Time
EST
Tmp

°C
App
Tmp
°C
Dew
Point
°C
Rel
Hum
%
Delta-T

°C
Wind Press
QNH
hPa
Press
MSL
hPa
Rain
since
9 am
mm
Dir
 
Spd
km/h
Gust
km/h
Spd
kts
Gust
kts
26/11:30pm 21.2 24.1 19.1 88 1.3 W 2 4 1 2 1016.8 1016.6 0.0
26/11:00pm 21.3 24.3 18.5 84 1.8 CALM 0 0 0 0 1017.2 1017.0 0.0
26/10:30pm 21.6 24.8 18.8 84 1.8 CALM 0 0 0 0 1017.7 1017.5 0.0
26/10:00pm 21.5 24.5 18.5 83 1.9 CALM 0 0 0 0 1017.7 1017.5 0.0
26/09:30pm 22.0 25.1 18.6 81 2.1 CALM 0 0 0 0 1017.9 1017.7 0.0
26/09:00pm 22.2 25.4 18.8 81 2.1 CALM 0 0 0 0 1017.8 1017.6 0.0
26/08:30pm 22.6 25.8 18.8 79 2.4 CALM 0 0 0 0 1017.6 1017.4 0.0
26/08:00pm 22.7 25.8 18.7 78 2.5 CALM 0 4 0 2 1017.4 1017.2 0.0
26/07:30pm 23.2 26.2 18.5 75 3.0 CALM 0 0 0 0 1017.2 1017.0 0.0
26/07:00pm 23.6 26.0 18.7 74 3.1 NE 4 6 2 3 1016.9 1016.7 0.0

Latest Capital City Observations: Canberra | Sydney | Melbourne | Brisbane | Adelaide | Perth | Hobart | Darwin

Other Formats:

Comma delimited format used in spreadsheet applications
http://www.bom.gov.au/fwo/IDQ60901/IDQ60901.95572.axf

JavaScript Object Notation format (JSON) in row-major order
http://www.bom.gov.au/fwo/IDQ60901/IDQ60901.95572.json